createdAt,value
2022-09-03T00:02:45.821Z,44.88
2022-09-03T00:05:17.084Z,45.16
2022-09-03T00:08:23.319Z,45.03
2022-09-03T00:11:13.333Z,45.30
2022-09-03T00:13:49.706Z,45.73
2022-09-03T00:16:22.014Z,45.87
2022-09-03T00:18:55.903Z,45.78
2022-09-03T00:21:38.246Z,45.75
2022-09-03T00:24:14.048Z,45.98
2022-09-03T00:26:45.413Z,46.65
2022-09-03T00:29:53.442Z,45.59
2022-09-03T00:32:47.206Z,46.08
2022-09-03T00:35:38.969Z,46.19
2022-09-03T00:38:06.398Z,46.65
2022-09-03T00:40:57.377Z,46.37
2022-09-03T00:44:05.348Z,46.44
2022-09-03T00:46:37.914Z,46.97
2022-09-03T00:49:26.906Z,46.82
2022-09-03T00:51:53.366Z,47.21
2022-09-03T00:54:47.707Z,46.95
2022-09-03T00:57:44.278Z,47.14
2022-09-03T01:00:17.025Z,47.35
2022-09-03T01:03:07.098Z,47.08
2022-09-03T01:06:07.295Z,47.33
2022-09-03T01:09:05.480Z,46.89
2022-09-03T01:11:59.685Z,47.35
2022-09-03T01:14:46.570Z,47.13
2022-09-03T01:17:59.594Z,47.44
2022-09-03T01:20:45.645Z,47.74
2022-09-03T01:23:37.240Z,47.56
2022-09-03T01:26:11.257Z,47.67
2022-09-03T01:28:46.854Z,47.73
2022-09-03T01:31:37.641Z,47.72
2022-09-03T01:34:16.383Z,48.02
2022-09-03T01:36:45.562Z,48.36
2022-09-03T01:39:26.697Z,48.49
2022-09-03T01:42:32.601Z,48.05
2022-09-03T01:45:21.762Z,48.38
2022-09-03T01:48:07.005Z,48.16
2022-09-03T01:51:16.355Z,48.37
2022-09-03T01:53:52.558Z,48.70
2022-09-03T01:56:40.852Z,48.55
2022-09-03T02:00:04.996Z,48.55
2022-09-03T02:02:35.537Z,48.70
2022-09-03T02:05:19.689Z,48.84
2022-09-03T02:07:56.193Z,49.13
2022-09-03T02:10:30.462Z,49.01
2022-09-03T02:13:26.096Z,48.58
2022-09-03T02:15:57.128Z,48.74
2022-09-03T02:18:31.358Z,49.00
2022-09-03T02:21:00.639Z,49.11
2022-09-03T02:23:28.716Z,48.68
2022-09-03T02:26:01.712Z,49.02
2022-09-03T02:28:30.744Z,48.65
2022-09-03T02:30:57.980Z,48.97
2022-09-03T02:33:25.020Z,49.15
2022-09-03T02:35:52.445Z,48.99
2022-09-03T02:38:22.627Z,49.37
2022-09-03T02:40:49.318Z,49.25
2022-09-03T02:43:42.094Z,49.11
2022-09-03T02:46:18.302Z,49.42
2022-09-03T02:48:44.955Z,49.57
2022-09-03T02:51:13.754Z,49.43
2022-09-03T02:53:42.013Z,49.42
2022-09-03T02:56:08.577Z,49.47
2022-09-03T02:58:40.928Z,49.60
2022-09-03T03:01:07.555Z,49.37
2022-09-03T03:03:34.180Z,49.72
2022-09-03T03:06:03.416Z,49.58
2022-09-03T03:08:30.438Z,49.61
2022-09-03T03:10:59.007Z,49.64
2022-09-03T03:13:30.141Z,49.66
2022-09-03T03:16:01.017Z,49.60
2022-09-03T03:18:29.103Z,49.68
2022-09-03T03:20:55.932Z,49.85
2022-09-03T03:23:24.686Z,49.96
2022-09-03T03:25:51.191Z,50.05
2022-09-03T03:28:20.606Z,50.04
2022-09-03T03:30:49.046Z,49.91
2022-09-03T03:33:18.909Z,50.14
2022-09-03T03:35:45.432Z,49.87
2022-09-03T03:38:12.223Z,50.19
2022-09-03T03:40:39.908Z,50.11
2022-09-03T03:43:08.746Z,49.91
2022-09-03T03:45:35.327Z,50.31
2022-09-03T03:48:02.160Z,49.87
2022-09-03T03:50:28.782Z,49.97
2022-09-03T03:53:02.490Z,49.95
2022-09-03T03:55:29.055Z,50.13
2022-09-03T03:58:01.665Z,49.83
2022-09-03T04:00:28.221Z,50.00
2022-09-03T04:02:54.948Z,50.26
2022-09-03T04:05:23.235Z,50.15
2022-09-03T04:07:50.662Z,49.96
2022-09-03T04:10:19.531Z,50.12
2022-09-03T04:12:46.407Z,50.24
2022-09-03T04:15:12.974Z,49.92
2022-09-03T04:17:39.838Z,50.15
2022-09-03T04:20:06.689Z,50.42
2022-09-03T04:22:33.993Z,50.40
2022-09-03T04:25:00.788Z,50.45
2022-09-03T04:27:27.353Z,50.56
2022-09-03T04:29:53.929Z,50.69
2022-09-03T04:32:38.918Z,50.56
2022-09-03T04:35:05.850Z,50.67
2022-09-03T04:37:32.707Z,50.85
2022-09-03T04:39:59.265Z,50.93
2022-09-03T04:42:25.896Z,51.07
2022-09-03T04:44:52.401Z,51.15
2022-09-03T04:47:19.029Z,51.11
2022-09-03T04:49:47.994Z,51.08
2022-09-03T04:52:14.599Z,51.14
2022-09-03T04:54:41.160Z,51.13
2022-09-03T04:57:07.794Z,51.31
2022-09-03T04:59:34.314Z,51.17
2022-09-03T05:02:00.912Z,51.40
2022-09-03T05:04:27.944Z,51.53
2022-09-03T05:06:54.584Z,51.51
2022-09-03T05:09:21.521Z,51.46
2022-09-03T05:11:48.042Z,51.70
2022-09-03T05:14:14.635Z,51.56
2022-09-03T05:16:41.272Z,51.67
2022-09-03T05:19:08.175Z,51.49
2022-09-03T05:21:36.180Z,51.63
2022-09-03T05:24:05.417Z,51.53
2022-09-03T05:26:37.162Z,51.39
2022-09-03T05:29:07.856Z,51.36
2022-09-03T05:31:37.189Z,51.27
2022-09-03T05:34:04.858Z,51.63
2022-09-03T05:36:36.961Z,51.52
2022-09-03T05:39:05.190Z,51.14
2022-09-03T05:41:34.310Z,51.37
2022-09-03T05:44:01.043Z,51.05
2022-09-03T05:46:32.413Z,50.93
2022-09-03T05:49:06.247Z,50.84
2022-09-03T05:51:34.320Z,50.25
2022-09-03T05:54:01.675Z,47.56
2022-09-03T05:56:31.136Z,44.33
2022-09-03T05:59:05.511Z,43.62
2022-09-03T06:01:34.927Z,40.36
2022-09-03T06:04:05.990Z,41.37
2022-09-03T06:06:34.806Z,41.60
2022-09-03T06:09:10.827Z,41.92
2022-09-03T06:11:39.220Z,43.44
2022-09-03T06:14:08.590Z,44.75
2022-09-03T06:16:38.941Z,45.34
2022-09-03T06:19:10.991Z,45.94
2022-09-03T06:21:42.852Z,45.88
2022-09-03T06:24:17.726Z,45.79
2022-09-03T06:26:46.702Z,45.84
2022-09-03T06:29:13.781Z,45.63
2022-09-03T06:31:40.669Z,45.39
2022-09-03T06:34:07.547Z,45.29
2022-09-03T06:36:34.643Z,44.25
2022-09-03T06:39:01.590Z,42.90
2022-09-03T06:41:35.461Z,41.50
2022-09-03T06:44:11.239Z,42.39
2022-09-03T06:46:44.175Z,43.28
2022-09-03T06:49:11.948Z,44.10
2022-09-03T06:51:39.153Z,44.12
2022-09-03T06:54:10.872Z,43.67
2022-09-03T06:56:40.822Z,43.37
2022-09-03T06:59:11.965Z,43.58
2022-09-03T07:01:43.567Z,43.69
2022-09-03T07:04:12.805Z,43.37
2022-09-03T07:06:42.046Z,43.59
2022-09-03T07:09:10.128Z,42.40
2022-09-03T07:11:37.255Z,42.35
2022-09-03T07:14:05.025Z,42.36
2022-09-03T07:16:37.128Z,42.21
2022-09-03T07:19:06.099Z,36.02
2022-09-03T07:21:34.200Z,31.85
2022-09-03T07:24:00.927Z,29.92
2022-09-03T07:26:31.230Z,28.73
2022-09-03T07:28:59.028Z,28.37
2022-09-03T07:31:30.027Z,27.67
2022-09-03T07:34:01.095Z,27.84
2022-09-03T07:36:29.308Z,26.93
2022-09-03T07:39:01.997Z,26.17
2022-09-03T07:41:31.474Z,26.61
2022-09-03T07:43:58.079Z,26.24
2022-09-03T07:46:29.731Z,25.98
2022-09-03T07:48:57.972Z,25.15
2022-09-03T07:51:27.792Z,26.23
2022-09-03T07:53:59.030Z,26.20
2022-09-03T07:56:27.107Z,26.16
2022-09-03T07:58:56.390Z,26.33
2022-09-03T08:01:24.791Z,25.88
2022-09-03T08:03:53.440Z,24.48
2022-09-03T08:06:23.389Z,25.10
2022-09-03T08:08:59.705Z,24.50
2022-09-03T08:11:31.389Z,24.69
2022-09-03T08:14:03.420Z,24.04
2022-09-03T08:16:32.413Z,23.37
2022-09-03T08:18:59.486Z,23.47
2022-09-03T08:21:27.592Z,22.94
2022-09-03T08:24:02.400Z,22.92
2022-09-03T08:26:37.148Z,23.74
2022-09-03T08:29:04.615Z,23.14
2022-09-03T08:31:32.888Z,24.61
2022-09-03T08:34:06.676Z,24.38
2022-09-03T08:36:36.412Z,25.48
2022-09-03T08:39:09.584Z,27.61
2022-09-03T08:41:57.798Z,29.73
2022-09-03T08:44:30.321Z,28.62
2022-09-03T08:47:20.747Z,25.67
2022-09-03T08:49:55.718Z,24.61
2022-09-03T08:52:22.191Z,23.61
2022-09-03T08:54:51.160Z,23.86
2022-09-03T08:57:20.871Z,23.58
2022-09-03T08:59:52.819Z,23.61
2022-09-03T09:02:19.373Z,23.71
2022-09-03T09:05:15.343Z,23.60
2022-09-03T09:08:09.253Z,24.83
2022-09-03T09:10:52.764Z,24.66
2022-09-03T09:13:36.754Z,25.33
2022-09-03T09:16:47.342Z,25.63
2022-09-03T09:19:59.623Z,26.13
2022-09-03T09:22:39.541Z,25.74
2022-09-03T09:25:14.513Z,26.00
2022-09-03T09:27:52.178Z,27.14
2022-09-03T09:30:19.783Z,27.13
2022-09-03T09:32:47.341Z,26.67
2022-09-03T09:35:17.066Z,26.95
2022-09-03T09:37:57.498Z,27.23
2022-09-03T09:40:41.465Z,27.51
2022-09-03T09:43:16.084Z,27.29
2022-09-03T09:45:45.201Z,27.43
2022-09-03T09:48:31.749Z,28.38
2022-09-03T09:51:13.690Z,28.60
2022-09-03T09:53:41.421Z,29.17
2022-09-03T09:56:10.661Z,29.16
2022-09-03T09:58:40.068Z,29.70
2022-09-03T10:01:20.752Z,29.65
2022-09-03T10:03:58.127Z,29.71
2022-09-03T10:06:49.645Z,29.62
2022-09-03T10:09:19.315Z,29.53
2022-09-03T10:11:50.906Z,29.27
2022-09-03T10:14:23.108Z,29.15
2022-09-03T10:17:00.866Z,29.23
2022-09-03T10:20:27.337Z,29.73
2022-09-03T10:23:06.205Z,29.94
2022-09-03T10:25:47.921Z,30.48
2022-09-03T10:28:14.464Z,30.47
2022-09-03T10:31:01.600Z,30.50
2022-09-03T10:33:37.934Z,30.26
2022-09-03T10:36:47.990Z,30.36
2022-09-03T10:39:30.066Z,30.01
2022-09-03T10:42:27.216Z,30.82
2022-09-03T10:45:28.915Z,30.55
2022-09-03T10:48:07.886Z,30.10
2022-09-03T10:50:46.558Z,30.32
2022-09-03T10:53:31.292Z,30.83
2022-09-03T10:56:15.382Z,30.64
2022-09-03T10:58:54.155Z,30.52
2022-09-03T11:01:35.146Z,31.02
2022-09-03T11:04:19.913Z,30.49
2022-09-03T11:06:53.043Z,30.34
2022-09-03T11:09:31.756Z,30.23
2022-09-03T11:12:10.216Z,30.25
2022-09-03T11:14:53.891Z,30.47
2022-09-03T11:17:34.168Z,29.71
2022-09-03T11:20:03.629Z,29.60
2022-09-03T11:22:31.553Z,29.39
2022-09-03T11:25:01.130Z,29.19
2022-09-03T11:27:36.061Z,29.31
2022-09-03T11:30:09.742Z,29.11
2022-09-03T11:32:36.241Z,29.17
2022-09-03T11:35:14.654Z,29.05
2022-09-03T11:38:14.663Z,28.81
2022-09-03T11:40:56.870Z,28.91
2022-09-03T11:43:35.887Z,28.73
2022-09-03T11:46:24.546Z,28.55
2022-09-03T11:48:53.216Z,28.31
2022-09-03T11:51:32.986Z,28.53
2022-09-03T11:54:01.322Z,28.21
2022-09-03T11:56:30.053Z,28.28
2022-09-03T11:59:19.762Z,28.15
2022-09-03T12:02:01.668Z,27.76
2022-09-03T12:05:11.150Z,27.96
2022-09-03T12:08:18.247Z,28.20
2022-09-03T12:11:24.397Z,28.13
2022-09-03T12:14:16.653Z,27.69
2022-09-03T12:17:09.269Z,27.91
2022-09-03T12:20:01.939Z,28.28
2022-09-03T12:22:32.771Z,28.04
2022-09-03T12:25:13.521Z,27.79
2022-09-03T12:27:44.201Z,27.95
2022-09-03T12:30:21.504Z,27.75
2022-09-03T12:32:51.869Z,27.49
2022-09-03T12:38:18.298Z,27.80
2022-09-03T12:43:49.799Z,26.81
2022-09-03T12:46:17.791Z,27.13
2022-09-03T12:51:56.043Z,27.27
2022-09-03T12:54:25.345Z,27.59
2022-09-03T12:57:00.227Z,28.08
2022-09-03T12:59:35.035Z,27.85
2022-09-03T13:02:12.374Z,27.89
2022-09-03T13:04:40.525Z,27.30
2022-09-03T13:07:14.458Z,27.18
2022-09-03T13:09:42.293Z,27.17
2022-09-03T13:12:21.549Z,27.35
2022-09-03T13:14:52.672Z,27.16
2022-09-03T13:17:47.235Z,27.52
2022-09-03T13:20:38.710Z,27.58
2022-09-03T13:23:32.712Z,27.71
2022-09-03T13:26:14.785Z,27.56
2022-09-03T13:28:50.513Z,27.33
2022-09-03T13:31:45.101Z,27.70
2022-09-03T13:34:24.760Z,28.10
2022-09-03T13:36:58.885Z,27.67
2022-09-03T13:39:35.407Z,27.89
2022-09-03T13:42:18.311Z,27.78
2022-09-03T13:44:50.127Z,27.89
2022-09-03T13:47:19.525Z,27.48
2022-09-03T13:50:16.897Z,27.93
2022-09-03T13:52:56.942Z,27.26
2022-09-03T13:55:26.264Z,27.86
2022-09-03T13:58:01.897Z,27.88
2022-09-03T14:00:47.070Z,27.54
2022-09-03T14:03:32.301Z,27.90
2022-09-03T14:06:24.126Z,27.44
2022-09-03T14:09:09.337Z,27.38
2022-09-03T14:12:01.384Z,27.49
2022-09-03T14:15:05.248Z,27.62
2022-09-03T14:18:19.839Z,27.42
2022-09-03T14:21:03.737Z,27.29
2022-09-03T14:23:45.777Z,27.50
2022-09-03T14:26:38.478Z,26.95
2022-09-03T14:29:06.418Z,27.34
2022-09-03T14:31:45.356Z,26.83
2022-09-03T14:34:24.152Z,27.06
2022-09-03T14:37:35.994Z,27.62
2022-09-03T14:40:19.281Z,27.44
2022-09-03T14:43:24.976Z,27.84
2022-09-03T14:46:47.012Z,27.63
2022-09-03T14:49:43.120Z,27.45
2022-09-03T14:52:19.561Z,27.48
2022-09-03T14:55:08.055Z,27.24
2022-09-03T14:57:40.499Z,26.57
2022-09-03T15:00:21.389Z,26.57
2022-09-03T15:03:11.881Z,26.50
2022-09-03T15:06:13.773Z,26.71
2022-09-03T15:09:11.071Z,27.17
2022-09-03T15:11:54.316Z,27.17
2022-09-03T15:14:39.125Z,27.63
2022-09-03T15:17:28.892Z,27.56
2022-09-03T15:20:04.545Z,27.86
2022-09-03T15:23:05.328Z,27.23
2022-09-03T15:25:59.750Z,27.22
2022-09-03T15:28:39.042Z,27.24
2022-09-03T15:31:19.449Z,27.25
2022-09-03T15:34:34.653Z,27.21
2022-09-03T15:37:09.544Z,26.90
2022-09-03T15:39:40.627Z,26.70
2022-09-03T15:42:14.703Z,26.55
2022-09-03T15:44:55.409Z,26.72
2022-09-03T15:47:51.021Z,26.66
2022-09-03T15:50:36.296Z,26.44
2022-09-03T15:53:42.000Z,26.78
2022-09-03T15:56:25.388Z,26.67
2022-09-03T15:59:12.609Z,26.90
2022-09-03T16:01:54.145Z,27.10
2022-09-03T16:04:26.850Z,27.08
2022-09-03T16:07:14.521Z,26.86
2022-09-03T16:10:22.616Z,27.53
2022-09-03T16:13:07.879Z,27.75
2022-09-03T16:15:34.942Z,27.32
2022-09-03T16:18:01.731Z,27.51
2022-09-03T16:20:41.509Z,27.58
2022-09-03T16:23:16.696Z,27.28
2022-09-03T16:25:59.690Z,27.73
2022-09-03T16:28:53.375Z,27.47
2022-09-03T16:31:57.462Z,27.88
2022-09-03T16:34:47.900Z,27.86
2022-09-03T16:37:17.049Z,28.07
2022-09-03T16:39:55.257Z,28.46
2022-09-03T16:42:32.617Z,27.83
2022-09-03T16:45:34.275Z,28.05
2022-09-03T16:48:07.208Z,28.51
2022-09-03T16:50:46.158Z,28.20
2022-09-03T16:53:22.735Z,28.38
2022-09-03T16:55:57.083Z,29.12
2022-09-03T16:58:42.662Z,28.57
2022-09-03T17:01:41.484Z,28.77
2022-09-03T17:04:31.213Z,29.37
2022-09-03T17:07:19.815Z,28.90
2022-09-03T17:10:12.366Z,29.29
2022-09-03T17:12:57.756Z,29.34
2022-09-03T17:15:34.392Z,29.52
2022-09-03T17:18:43.263Z,29.63
2022-09-03T17:21:19.973Z,29.52
2022-09-03T17:24:08.189Z,29.67
2022-09-03T17:27:01.179Z,29.87
2022-09-03T17:29:32.877Z,29.54
2022-09-03T17:32:32.062Z,29.79
2022-09-03T17:35:33.847Z,30.35
2022-09-03T17:38:12.415Z,30.62
2022-09-03T17:40:44.868Z,31.53
2022-09-03T17:43:31.240Z,31.53
2022-09-03T17:46:14.000Z,31.91
2022-09-03T17:48:51.439Z,31.79
2022-09-03T17:51:47.663Z,31.98
2022-09-03T17:54:23.268Z,32.58
2022-09-03T17:57:10.530Z,32.28
2022-09-03T17:59:45.453Z,33.01
2022-09-03T18:02:14.746Z,33.07
2022-09-03T18:05:07.310Z,33.15
2022-09-03T18:08:00.970Z,33.13
2022-09-03T18:10:41.334Z,33.62
2022-09-03T18:13:52.671Z,33.29
2022-09-03T18:16:27.442Z,34.00
2022-09-03T18:19:19.980Z,34.41
2022-09-03T18:22:08.321Z,34.81
2022-09-03T18:25:05.594Z,35.28
2022-09-03T18:28:06.071Z,35.02
2022-09-03T18:30:53.068Z,35.78
2022-09-03T18:33:43.631Z,35.93
2022-09-03T18:36:29.685Z,36.37
2022-09-03T18:39:32.146Z,36.56
2022-09-03T18:43:13.212Z,36.21
2022-09-03T18:47:22.516Z,37.19
2022-09-03T18:49:53.802Z,37.37
2022-09-03T18:53:08.832Z,37.17
2022-09-03T18:56:14.318Z,38.07
2022-09-03T18:59:16.673Z,38.53
2022-09-03T19:02:02.347Z,38.88
2022-09-03T19:05:20.245Z,39.41
2022-09-03T19:08:24.891Z,39.02
2022-09-03T19:11:46.763Z,39.23
2022-09-03T19:15:04.050Z,39.45
2022-09-03T19:18:12.690Z,40.29
2022-09-03T19:21:04.401Z,41.27
2022-09-03T19:23:55.869Z,41.70
2022-09-03T19:27:24.686Z,42.01
2022-09-03T19:30:37.867Z,41.48
2022-09-03T19:33:49.236Z,42.06
2022-09-03T19:36:56.442Z,42.97
2022-09-03T19:40:00.722Z,43.17
2022-09-03T19:43:07.526Z,42.59
2022-09-03T19:46:08.199Z,43.29
2022-09-03T19:49:22.008Z,43.13
2022-09-03T19:52:19.763Z,43.98
2022-09-03T19:55:09.061Z,44.18
2022-09-03T19:57:54.380Z,44.48
2022-09-03T20:00:41.500Z,44.42
2022-09-03T20:03:26.706Z,44.77
2022-09-03T20:06:14.271Z,45.12
2022-09-03T20:08:59.124Z,44.90
2022-09-03T20:11:28.906Z,45.18
2022-09-03T20:14:14.854Z,45.24
2022-09-03T20:16:56.369Z,45.28
2022-09-03T20:19:34.930Z,45.62
2022-09-03T20:22:15.644Z,45.50
2022-09-03T20:24:58.909Z,46.28
2022-09-03T20:27:47.113Z,46.41
2022-09-03T20:30:19.539Z,46.51
2022-09-03T20:32:53.213Z,46.67
2022-09-03T20:35:38.315Z,47.05
2022-09-03T20:38:10.092Z,47.41
2022-09-03T20:40:52.805Z,47.30
2022-09-03T20:43:26.739Z,47.37
2022-09-03T20:45:53.957Z,47.77
2022-09-03T20:48:36.860Z,47.59
2022-09-03T20:51:13.090Z,48.08
2022-09-03T20:53:54.914Z,48.56
2022-09-03T20:56:24.843Z,48.94
2022-09-03T20:59:09.739Z,48.08
2022-09-03T21:01:51.022Z,48.59
2022-09-03T21:04:55.051Z,48.68
2022-09-03T21:07:27.408Z,49.50
2022-09-03T21:10:08.148Z,49.72
2022-09-03T21:12:53.032Z,48.87
2022-09-03T21:15:34.525Z,49.53
2022-09-03T21:18:19.611Z,49.89
2022-09-03T21:21:36.600Z,49.94
2022-09-03T21:24:19.620Z,50.14
2022-09-03T21:26:52.061Z,50.46
2022-09-03T21:29:34.421Z,51.05
2022-09-03T21:32:23.591Z,51.43
2022-09-03T21:34:58.316Z,51.95
2022-09-03T21:37:25.034Z,52.00
2022-09-03T21:39:53.687Z,52.57
2022-09-03T21:42:42.384Z,52.60
2022-09-03T21:45:13.579Z,52.83
2022-09-03T21:47:49.972Z,53.33
2022-09-03T21:50:21.184Z,53.37
2022-09-03T21:52:54.409Z,53.15
2022-09-03T21:55:32.924Z,53.37
2022-09-03T21:58:14.383Z,53.38
2022-09-03T22:00:40.944Z,53.42
2022-09-03T22:03:10.433Z,53.45
2022-09-03T22:05:54.485Z,53.15
2022-09-03T22:08:50.988Z,53.07
2022-09-03T22:11:29.739Z,53.93
2022-09-03T22:14:10.269Z,54.26
2022-09-03T22:16:58.757Z,54.18
2022-09-03T22:19:25.705Z,54.56
2022-09-03T22:21:59.863Z,55.17
2022-09-03T22:24:38.875Z,55.12
2022-09-03T22:27:08.321Z,55.28
2022-09-03T22:30:00.554Z,55.58
2022-09-03T22:33:00.940Z,55.45
2022-09-03T22:35:27.387Z,56.15
2022-09-03T22:38:21.350Z,55.61
2022-09-03T22:40:52.444Z,56.06
2022-09-03T22:43:19.200Z,56.11
2022-09-03T22:45:58.648Z,56.18
2022-09-03T22:48:36.132Z,56.63
2022-09-03T22:51:03.335Z,56.70
2022-09-03T22:53:48.291Z,56.78
2022-09-03T22:56:22.388Z,56.96
2022-09-03T22:59:10.939Z,56.60
2022-09-03T23:02:05.615Z,56.64
2022-09-03T23:04:41.854Z,57.36
2022-09-03T23:07:18.993Z,57.42
2022-09-03T23:09:56.037Z,57.87
2022-09-03T23:12:41.328Z,57.20
2022-09-03T23:15:14.200Z,57.66
2022-09-03T23:17:47.235Z,57.83
2022-09-03T23:20:21.143Z,58.07
2022-09-03T23:22:59.450Z,58.24
2022-09-03T23:25:51.241Z,57.67
2022-09-03T23:28:36.517Z,58.19
2022-09-03T23:31:28.519Z,58.01
2022-09-03T23:33:55.370Z,58.59
2022-09-03T23:37:10.437Z,58.62
2022-09-03T23:39:38.015Z,58.55
2022-09-03T23:42:19.828Z,58.82
2022-09-03T23:45:00.783Z,59.42
2022-09-03T23:47:54.392Z,59.07
2022-09-03T23:50:46.422Z,59.41
2022-09-03T23:53:54.409Z,58.89
2022-09-03T23:56:46.104Z,59.52
2022-09-03T23:59:28.495Z,59.56
